Terminal Aerodrome Forecast
Issued by NWS

Home | Current Version | Previous Version | Text Only | Print | Product List | Glossary On
Versions: 1 2 3 4 5 6 7 8 9 10 11 12 13 14
791
FTUS46 KHNX 230520
TAFFAT
TAF
KFAT 230520Z 2306/2406 30012KT P6SM FEW060 FEW130
     FM230800 32007KT P6SM SKC=

USA.gov is the U.S. government's official web portal to all federal, state and local government web resources and services.